Time;durP1;ratioP1;P1;durP2;ratioP2;P2;SDS_P1;SDS_P2;PMS_P1;PMS_P2;Temp;Humidity;BMP_temperature;BMP_pressure;BME280_temperature;BME280_humidity;BME280_pressure;Samples;Min_cycle;Max_cycle;Signal;HPM_P1;HPM_P2
2023/08/15 00:02:17;;;;;;;0.05;0.05;;;20.50;99.90;;;;;;5094503;28;20023;-71
2023/08/15 00:04:43;;;;;;;1.00;0.45;;;20.30;99.90;;;;;;5094499;28;20054;-72
2023/08/15 00:07:09;;;;;;;2.45;1.45;;;20.00;99.90;;;;;;5093595;28;20025;-71
2023/08/15 00:09:35;;;;;;;0.20;0.20;;;20.00;99.90;;;;;;5094846;28;20028;-72
2023/08/15 00:12:01;;;;;;;0.00;0.00;;;20.10;99.90;;;;;;5093675;28;20028;-72
2023/08/15 00:14:27;;;;;;;0.00;0.00;;;20.20;99.90;;;;;;5092833;28;20365;-72
2023/08/15 00:16:53;;;;;;;0.00;0.00;;;20.50;99.90;;;;;;5094488;28;20035;-72
2023/08/15 00:19:19;;;;;;;0.00;0.00;;;20.60;99.90;;;;;;5094546;28;20024;-72
2023/08/15 00:21:44;;;;;;;0.00;0.00;;;20.80;99.90;;;;;;5094661;28;20792;-72
2023/08/15 00:24:10;;;;;;;0.00;0.00;;;20.90;99.90;;;;;;5094249;28;20071;-72
2023/08/15 00:26:36;;;;;;;0.00;0.00;;;20.90;99.90;;;;;;5092902;28;20026;-72
2023/08/15 00:29:02;;;;;;;0.63;0.63;;;20.90;99.90;;;;;;5089413;28;20028;-72
2023/08/15 00:31:28;;;;;;;0.00;0.00;;;20.60;99.90;;;;;;5089526;28;20414;-72
2023/08/15 00:33:54;;;;;;;0.00;0.00;;;20.30;99.90;;;;;;5091819;28;20043;-74
2023/08/15 00:36:20;;;;;;;0.00;0.00;;;20.10;99.90;;;;;;5088670;28;20552;-76
2023/08/15 00:38:46;;;;;;;0.00;0.00;;;20.10;99.90;;;;;;5074234;28;20024;-72
2023/08/15 00:41:11;;;;;;;0.00;0.00;;;20.30;99.90;;;;;;5078024;28;20410;-72
2023/08/15 00:43:38;;;;;;;0.00;0.00;;;20.20;99.90;;;;;;5056609;28;20041;-72
2023/08/15 00:46:06;;;;;;;0.00;0.00;;;20.30;99.90;;;;;;5081261;28;20071;-72
2023/08/15 00:48:33;;;;;;;0.00;0.00;;;20.20;99.90;;;;;;5082532;28;20025;-73
2023/08/15 00:51:00;;;;;;;0.00;0.00;;;20.40;99.90;;;;;;5079837;28;20024;-72
2023/08/15 00:53:29;;;;;;;0.00;0.00;;;20.20;99.90;;;;;;5074533;28;20495;-71
2023/08/15 00:55:57;;;;;;;0.30;0.30;;;20.10;99.90;;;;;;5080353;28;20019;-71
2023/08/15 00:58:23;;;;;;;0.00;0.00;;;20.20;99.90;;;;;;5087176;28;20353;-72
2023/08/15 01:00:50;;;;;;;0.00;0.00;;;20.20;99.90;;;;;;5073903;28;20435;-71
2023/08/15 01:03:17;;;;;;;0.00;0.00;;;20.30;99.90;;;;;;5075401;28;20111;-72
2023/08/15 01:05:44;;;;;;;0.00;0.00;;;20.10;99.90;;;;;;5078396;28;20028;-71
2023/08/15 01:08:09;;;;;;;0.00;0.00;;;20.10;99.90;;;;;;5078645;28;20067;-71
2023/08/15 01:10:39;;;;;;;0.00;0.00;;;20.10;99.90;;;;;;5083720;28;20404;-72
2023/08/15 01:13:42;;;;;;;4.30;1.35;;;20.40;99.90;;;;;;5087212;28;20043;-72
2023/08/15 01:16:13;;;;;;;0.00;0.00;;;20.70;99.90;;;;;;5082986;28;20078;-72
2023/08/15 01:18:44;;;;;;;0.00;0.00;;;20.70;99.90;;;;;;5085567;28;20016;-71
2023/08/15 01:21:13;;;;;;;0.07;0.07;;;20.60;99.90;;;;;;5085840;28;20063;-72
2023/08/15 01:23:45;;;;;;;0.00;0.00;;;20.60;99.90;;;;;;5092736;28;20108;-72
2023/08/15 01:26:11;;;;;;;0.03;0.03;;;20.80;99.90;;;;;;5087549;28;20058;-72
2023/08/15 01:28:40;;;;;;;0.10;0.10;;;20.40;99.90;;;;;;5091071;28;20031;-72
2023/08/15 01:31:30;;;;;;;0.00;0.00;;;19.90;99.90;;;;;;5076724;28;20072;-72
2023/08/15 01:34:09;;;;;;;0.10;0.10;;;20.00;99.90;;;;;;5074372;28;20473;-73
2023/08/15 01:36:40;;;;;;;0.15;0.15;;;20.20;99.90;;;;;;5075672;28;20058;-72
2023/08/15 01:39:07;;;;;;;0.00;0.00;;;20.30;99.90;;;;;;5075609;28;20086;-72
2023/08/15 01:41:37;;;;;;;0.00;0.00;;;20.20;99.90;;;;;;5076724;28;20020;-72
2023/08/15 01:44:03;;;;;;;0.22;0.22;;;20.00;99.90;;;;;;5078826;28;20107;-72
2023/08/15 01:46:29;;;;;;;0.10;0.10;;;20.20;99.90;;;;;;5079153;28;20029;-73
2023/08/15 01:48:57;;;;;;;0.00;0.00;;;19.90;99.90;;;;;;5078678;28;20047;-72
2023/08/15 01:51:23;;;;;;;0.08;0.08;;;19.90;99.90;;;;;;5075524;28;20087;-72
2023/08/15 01:53:50;;;;;;;0.00;0.00;;;20.00;99.90;;;;;;5074841;28;20104;-72
2023/08/15 01:56:16;;;;;;;0.52;0.52;;;20.00;99.90;;;;;;5072908;28;20111;-73
2023/08/15 01:58:42;;;;;;;0.20;0.20;;;19.90;99.90;;;;;;5070955;28;20039;-72
2023/08/15 02:01:08;;;;;;;0.00;0.00;;;19.90;99.90;;;;;;5071476;28;20081;-72
2023/08/15 02:03:34;;;;;;;0.57;0.35;;;20.00;99.90;;;;;;5071973;28;20072;-73
2023/08/15 02:05:59;;;;;;;0.10;0.10;;;19.80;99.90;;;;;;5071356;28;20075;-72
2023/08/15 02:08:25;;;;;;;0.10;0.10;;;19.60;99.90;;;;;;5071117;28;20017;-72
2023/08/15 02:10:51;;;;;;;0.00;0.00;;;19.80;99.90;;;;;;5070596;28;20021;-72
2023/08/15 02:13:18;;;;;;;0.00;0.00;;;19.90;99.90;;;;;;5070893;28;20036;-72
2023/08/15 02:15:44;;;;;;;0.15;0.15;;;19.90;99.90;;;;;;5070566;28;20468;-72
2023/08/15 02:18:10;;;;;;;0.20;0.15;;;19.70;99.90;;;;;;5068553;28;20538;-73
2023/08/15 02:20:37;;;;;;;0.65;0.47;;;19.80;99.90;;;;;;5070385;28;20031;-73
2023/08/15 02:23:03;;;;;;;0.20;0.20;;;19.70;99.90;;;;;;5084941;28;20380;-74
2023/08/15 02:25:29;;;;;;;0.00;0.00;;;19.50;99.90;;;;;;5089496;28;20728;-73
2023/08/15 02:27:55;;;;;;;0.00;0.00;;;19.50;99.90;;;;;;5080107;28;20132;-72
2023/08/15 02:30:22;;;;;;;0.00;0.00;;;19.50;99.90;;;;;;5084625;28;20384;-73
2023/08/15 02:32:47;;;;;;;0.10;0.10;;;19.50;99.90;;;;;;5067570;28;20024;-72
2023/08/15 02:35:13;;;;;;;0.00;0.00;;;19.40;99.90;;;;;;5091333;28;20115;-72
2023/08/15 02:37:40;;;;;;;0.05;0.05;;;19.60;99.90;;;;;;5091276;28;20024;-73
2023/08/15 02:40:09;;;;;;;0.28;0.28;;;19.70;99.90;;;;;;5076602;28;20020;-73
2023/08/15 02:42:35;;;;;;;12.20;2.33;;;19.60;99.90;;;;;;5091175;28;20020;-73
2023/08/15 02:45:01;;;;;;;0.00;0.00;;;19.30;99.90;;;;;;5092209;28;20414;-72
2023/08/15 02:47:27;;;;;;;1.73;0.85;;;19.30;99.90;;;;;;5095115;28;20024;-72
2023/08/15 02:49:52;;;;;;;0.00;0.00;;;19.20;99.90;;;;;;5095194;28;20442;-72
2023/08/15 02:52:18;;;;;;;0.00;0.00;;;19.20;99.90;;;;;;5096322;28;20103;-72
2023/08/15 02:54:44;;;;;;;0.15;0.15;;;19.10;99.90;;;;;;5096300;28;20032;-72
2023/08/15 02:57:10;;;;;;;1.65;0.40;;;19.30;99.90;;;;;;5081314;28;20028;-72
2023/08/15 02:59:36;;;;;;;0.00;0.00;;;19.10;99.90;;;;;;5094932;28;20070;-72
2023/08/15 03:02:02;;;;;;;0.25;0.25;;;18.80;99.90;;;;;;5094568;28;20035;-72
2023/08/15 03:04:28;;;;;;;0.00;0.00;;;18.80;99.90;;;;;;5095936;28;20044;-72
2023/08/15 03:06:54;;;;;;;0.70;0.25;;;18.80;99.90;;;;;;5085423;28;20029;-72
2023/08/15 03:09:20;;;;;;;0.00;0.00;;;18.90;99.90;;;;;;5094683;28;20020;-72
2023/08/15 03:11:46;;;;;;;0.00;0.00;;;18.90;99.90;;;;;;5094578;28;20027;-72
2023/08/15 03:14:12;;;;;;;0.00;0.00;;;18.90;99.90;;;;;;5094300;28;20016;-72
2023/08/15 03:16:38;;;;;;;0.13;0.13;;;19.10;99.90;;;;;;5094737;28;20498;-72
2023/08/15 03:19:04;;;;;;;1.10;0.65;;;19.00;99.90;;;;;;5094246;28;20545;-72
2023/08/15 03:21:30;;;;;;;0.00;0.00;;;18.70;99.90;;;;;;5094574;28;20028;-72
2023/08/15 03:23:56;;;;;;;3.60;2.50;;;19.00;99.90;;;;;;5094346;28;20028;-72
2023/08/15 03:26:22;;;;;;;0.00;0.00;;;18.70;99.90;;;;;;5094008;28;20081;-72
2023/08/15 03:28:48;;;;;;;0.28;0.28;;;18.80;99.90;;;;;;5094215;28;20016;-72
2023/08/15 03:31:14;;;;;;;0.00;0.00;;;18.70;99.90;;;;;;5080074;28;20115;-72
2023/08/15 03:33:45;;;;;;;1.88;0.75;;;18.60;99.90;;;;;;5094110;28;20036;-72
2023/08/15 03:36:11;;;;;;;1.55;1.27;;;18.60;99.90;;;;;;5094058;28;20032;-72
2023/08/15 03:38:37;;;;;;;2.67;1.25;;;18.60;99.90;;;;;;5093888;28;20387;-72
2023/08/15 03:41:05;;;;;;;0.00;0.00;;;18.40;99.90;;;;;;5094163;28;20123;-72
2023/08/15 03:43:33;;;;;;;0.00;0.00;;;18.30;99.90;;;;;;5095259;28;20529;-72
2023/08/15 03:46:01;;;;;;;0.10;0.10;;;18.40;99.90;;;;;;5095239;28;20047;-72
2023/08/15 03:48:29;;;;;;;0.20;0.20;;;18.50;99.90;;;;;;5095091;28;20376;-72
2023/08/15 03:50:56;;;;;;;0.00;0.00;;;18.50;99.90;;;;;;5094038;28;20444;-72
2023/08/15 03:53:24;;;;;;;0.20;0.20;;;18.40;99.90;;;;;;5093447;28;20041;-72
2023/08/15 03:55:52;;;;;;;0.00;0.00;;;18.60;99.90;;;;;;5093785;28;20024;-72
2023/08/15 03:58:19;;;;;;;0.20;0.20;;;18.60;99.90;;;;;;5093175;28;20043;-72
2023/08/15 04:00:49;;;;;;;0.38;0.38;;;18.60;99.90;;;;;;5094775;28;20012;-72
2023/08/15 04:03:16;;;;;;;0.00;0.00;;;18.60;99.90;;;;;;5094635;28;20139;-72
2023/08/15 04:05:46;;;;;;;0.00;0.00;;;18.60;99.90;;;;;;5093471;28;20038;-72
2023/08/15 04:08:13;;;;;;;0.15;0.15;;;18.50;99.90;;;;;;5094262;28;20063;-72
2023/08/15 04:10:39;;;;;;;2.65;0.90;;;18.90;99.90;;;;;;5093446;28;20077;-72
2023/08/15 04:13:07;;;;;;;0.00;0.00;;;18.70;99.90;;;;;;5093373;28;20027;-72
2023/08/15 04:15:35;;;;;;;0.10;0.10;;;18.70;99.90;;;;;;5093344;28;20026;-72
2023/08/15 04:18:06;;;;;;;7.38;0.60;;;18.50;99.90;;;;;;5093359;28;20110;-72
2023/08/15 04:20:32;;;;;;;0.32;0.32;;;18.60;99.90;;;;;;5092953;28;20027;-73
2023/08/15 04:22:58;;;;;;;0.00;0.00;;;18.70;99.90;;;;;;5094429;28;20024;-72
2023/08/15 04:25:26;;;;;;;0.00;0.00;;;18.80;99.90;;;;;;5092829;28;20530;-73
2023/08/15 04:27:51;;;;;;;0.00;0.00;;;18.70;99.90;;;;;;5093205;28;20020;-72
2023/08/15 04:30:18;;;;;;;0.00;0.00;;;18.90;99.90;;;;;;5084349;28;20031;-72
2023/08/15 04:32:47;;;;;;;0.05;0.05;;;18.90;99.90;;;;;;5088903;28;20024;-72
2023/08/15 04:35:14;;;;;;;0.00;0.00;;;19.00;99.90;;;;;;5092578;28;20484;-72
2023/08/15 04:37:40;;;;;;;0.00;0.00;;;19.00;99.90;;;;;;5092240;28;20499;-72
2023/08/15 04:40:12;;;;;;;0.10;0.10;;;19.00;99.90;;;;;;5092684;28;20028;-72
2023/08/15 04:42:40;;;;;;;0.00;0.00;;;19.00;99.90;;;;;;5092980;28;20468;-73
2023/08/15 04:45:07;;;;;;;0.00;0.00;;;19.00;99.90;;;;;;5093581;28;20038;-72
2023/08/15 04:47:34;;;;;;;0.00;0.00;;;18.90;99.90;;;;;;5092847;28;20030;-72
2023/08/15 04:50:01;;;;;;;0.00;0.00;;;18.90;99.90;;;;;;5092730;28;20024;-72
2023/08/15 04:52:27;;;;;;;0.10;0.10;;;18.90;99.90;;;;;;5092614;28;20126;-72
2023/08/15 04:54:53;;;;;;;0.38;0.35;;;19.00;99.90;;;;;;5093626;28;20115;-73
2023/08/15 04:57:19;;;;;;;0.45;0.45;;;19.00;99.90;;;;;;5092695;28;20021;-72
2023/08/15 04:59:44;;;;;;;0.75;0.20;;;19.00;99.90;;;;;;5092473;28;20386;-72
2023/08/15 05:02:10;;;;;;;0.08;0.08;;;18.80;99.90;;;;;;5075768;28;20028;-73
2023/08/15 05:04:36;;;;;;;0.00;0.00;;;18.70;99.90;;;;;;5065177;28;20040;-72
2023/08/15 05:07:02;;;;;;;0.00;0.00;;;18.90;99.90;;;;;;5054222;28;20483;-72
2023/08/15 05:09:29;;;;;;;0.00;0.00;;;18.70;99.90;;;;;;5070899;28;20051;-74
2023/08/15 05:11:55;;;;;;;0.17;0.15;;;18.50;99.90;;;;;;5062574;28;20021;-73
2023/08/15 05:14:22;;;;;;;0.10;0.10;;;18.60;99.90;;;;;;5071758;28;20115;-73
2023/08/15 05:16:48;;;;;;;2.05;1.02;;;18.90;99.90;;;;;;5071881;28;20075;-72
2023/08/15 05:19:14;;;;;;;0.00;0.00;;;18.60;99.90;;;;;;5069705;28;20025;-72
2023/08/15 05:21:41;;;;;;;0.08;0.08;;;18.50;99.90;;;;;;5069110;28;20031;-72
2023/08/15 05:24:07;;;;;;;0.00;0.00;;;18.70;99.90;;;;;;5073207;28;20063;-72
2023/08/15 05:26:33;;;;;;;0.08;0.08;;;18.50;99.90;;;;;;5069032;28;20559;-73
2023/08/15 05:28:59;;;;;;;0.20;0.10;;;18.60;99.90;;;;;;5073537;28;20031;-72
2023/08/15 05:31:26;;;;;;;0.10;0.10;;;19.00;99.90;;;;;;5074674;28;20016;-72
2023/08/15 05:33:53;;;;;;;0.13;0.13;;;19.10;99.90;;;;;;5090498;28;20020;-72
2023/08/15 05:36:20;;;;;;;8.38;2.65;;;19.20;99.90;;;;;;5070970;28;20084;-72
2023/08/15 05:38:47;;;;;;;2.25;1.58;;;19.20;99.90;;;;;;5090727;28;20031;-72
2023/08/15 05:41:13;;;;;;;0.80;0.80;;;19.10;99.90;;;;;;5090506;28;20028;-72
2023/08/15 05:43:38;;;;;;;0.80;0.80;;;19.00;99.90;;;;;;5090202;28;20460;-72
2023/08/15 05:46:04;;;;;;;0.47;0.47;;;19.10;99.90;;;;;;5087053;28;20480;-72
2023/08/15 05:48:30;;;;;;;0.10;0.10;;;19.20;99.90;;;;;;5086794;28;20028;-72
2023/08/15 05:50:56;;;;;;;0.68;0.57;;;19.40;99.90;;;;;;5086229;28;20464;-72
2023/08/15 05:53:22;;;;;;;4.07;1.38;;;19.30;99.90;;;;;;5091918;28;20034;-80
2023/08/15 05:55:48;;;;;;;1.90;0.90;;;19.50;99.90;;;;;;5092140;28;20055;-73
2023/08/15 05:58:13;;;;;;;0.57;0.47;;;19.40;99.90;;;;;;5084800;28;20024;-74
2023/08/15 06:00:40;;;;;;;0.00;0.00;;;19.70;99.90;;;;;;5080440;28;20369;-73
2023/08/15 06:03:06;;;;;;;0.25;0.25;;;19.60;99.90;;;;;;5091576;28;20038;-72
2023/08/15 06:05:32;;;;;;;4.43;1.17;;;19.60;99.90;;;;;;5090963;28;20123;-72
2023/08/15 06:07:59;;;;;;;0.45;0.45;;;19.50;99.90;;;;;;5080970;28;20085;-72
2023/08/15 06:10:24;;;;;;;1.65;1.02;;;19.50;99.90;;;;;;5081131;28;20455;-72
2023/08/15 06:12:50;;;;;;;0.57;0.57;;;19.70;99.90;;;;;;5083226;28;20043;-72
2023/08/15 06:15:17;;;;;;;0.00;0.00;;;19.60;99.90;;;;;;5085126;28;20442;-72
2023/08/15 06:17:42;;;;;;;1.02;0.90;;;19.70;99.90;;;;;;5083753;28;20551;-72
2023/08/15 06:20:10;;;;;;;7.55;0.75;;;19.70;99.90;;;;;;5085400;28;20035;-72
2023/08/15 06:22:36;;;;;;;0.60;0.50;;;19.70;99.90;;;;;;5082172;28;20619;-72
2023/08/15 06:25:02;;;;;;;0.13;0.13;;;19.70;99.90;;;;;;5079537;28;20431;-72
2023/08/15 06:27:28;;;;;;;0.32;0.32;;;19.70;99.90;;;;;;5076516;28;20024;-72
2023/08/15 06:29:53;;;;;;;6.70;1.40;;;19.90;99.90;;;;;;5085931;28;20065;-72
2023/08/15 06:32:27;;;;;;;8.30;1.10;;;20.00;99.90;;;;;;5084421;28;20365;-72
2023/08/15 06:34:52;;;;;;;1.45;0.50;;;20.00;99.90;;;;;;5079312;28;20033;-72
2023/08/15 06:37:18;;;;;;;0.00;0.00;;;20.00;99.90;;;;;;5082774;28;20035;-73
2023/08/15 06:39:44;;;;;;;7.03;0.98;;;20.20;99.90;;;;;;5079573;28;20039;-72
2023/08/15 06:42:13;;;;;;;0.30;0.30;;;20.20;99.90;;;;;;5083932;28;20032;-72
2023/08/15 06:44:42;;;;;;;1.00;0.75;;;20.30;99.90;;;;;;5087156;28;20392;-73
2023/08/15 06:47:07;;;;;;;0.08;0.08;;;20.20;99.90;;;;;;5077252;28;20378;-73
2023/08/15 06:49:33;;;;;;;0.55;0.47;;;20.20;99.90;;;;;;5081968;28;20149;-73
2023/08/15 06:51:59;;;;;;;0.32;0.32;;;20.20;99.90;;;;;;5075979;28;20468;-73
2023/08/15 06:54:25;;;;;;;0.00;0.00;;;20.20;99.90;;;;;;5075672;28;20013;-74
2023/08/15 06:56:51;;;;;;;3.00;0.60;;;20.20;99.90;;;;;;5084965;28;20479;-72
2023/08/15 06:59:17;;;;;;;0.93;0.88;;;20.60;99.90;;;;;;5071783;28;20033;-73
2023/08/15 07:01:44;;;;;;;0.30;0.30;;;20.70;99.90;;;;;;5077078;28;20008;-73
2023/08/15 07:04:10;;;;;;;0.47;0.40;;;20.80;99.90;;;;;;5074488;28;20049;-72
2023/08/15 07:06:37;;;;;;;0.20;0.20;;;20.70;99.90;;;;;;5077372;28;20029;-73
2023/08/15 07:09:06;;;;;;;0.10;0.10;;;20.80;99.90;;;;;;5075094;28;20472;-73
2023/08/15 07:11:32;;;;;;;2.25;0.38;;;20.90;99.90;;;;;;5084585;28;20484;-73
2023/08/15 07:13:58;;;;;;;0.32;0.32;;;20.90;99.90;;;;;;5078084;28;20019;-73
2023/08/15 07:16:23;;;;;;;0.82;0.80;;;21.10;99.90;;;;;;5074444;28;20503;-75
2023/08/15 07:18:49;;;;;;;2.53;0.43;;;21.40;99.90;;;;;;5075258;28;20553;-73
2023/08/15 07:21:16;;;;;;;0.00;0.00;;;21.10;99.90;;;;;;5063666;28;20029;-72
2023/08/15 07:23:42;;;;;;;5.20;1.60;;;21.00;99.90;;;;;;5066712;28;20498;-73
2023/08/15 07:26:07;;;;;;;0.32;0.32;;;21.10;99.90;;;;;;5076203;28;20481;-73
2023/08/15 07:28:33;;;;;;;1.13;0.65;;;21.30;99.90;;;;;;5082804;28;20354;-73
2023/08/15 07:30:59;;;;;;;0.65;0.47;;;21.40;99.90;;;;;;5074871;28;20036;-72
2023/08/15 07:33:25;;;;;;;1.45;1.15;;;21.50;99.90;;;;;;5094487;28;20399;-73
2023/08/15 07:35:51;;;;;;;0.30;0.17;;;21.50;99.90;;;;;;5084452;28;20029;-75
2023/08/15 07:38:17;;;;;;;0.65;0.22;;;21.50;99.90;;;;;;5093311;28;20085;-72
2023/08/15 07:40:43;;;;;;;0.30;0.30;;;21.60;99.90;;;;;;5085927;28;20413;-72
2023/08/15 07:43:09;;;;;;;0.50;0.32;;;21.90;99.90;;;;;;5076884;28;20044;-74
2023/08/15 07:45:35;;;;;;;0.00;0.00;;;21.90;99.90;;;;;;5073856;28;20484;-74
2023/08/15 07:48:01;;;;;;;0.80;0.60;;;21.80;99.90;;;;;;5073712;28;20429;-73
2023/08/15 07:50:28;;;;;;;0.73;0.10;;;21.60;99.90;;;;;;5074182;28;20032;-72
2023/08/15 07:52:58;;;;;;;0.00;0.00;;;21.70;99.90;;;;;;5069931;28;20086;-73
2023/08/15 07:55:24;;;;;;;0.00;0.00;;;21.90;99.90;;;;;;5088793;28;20024;-74
2023/08/15 07:57:49;;;;;;;11.35;2.05;;;22.00;99.90;;;;;;5074283;28;20025;-73
2023/08/15 08:00:16;;;;;;;4.78;0.68;;;22.00;99.90;;;;;;5074188;28;20044;-72
2023/08/15 08:02:46;;;;;;;0.77;0.43;;;22.00;99.90;;;;;;5074150;28;20099;-72
2023/08/15 08:05:12;;;;;;;1.35;0.50;;;21.80;99.90;;;;;;5073853;28;20123;-72
2023/08/15 08:07:41;;;;;;;0.00;0.00;;;22.00;99.90;;;;;;5074016;28;20107;-73
2023/08/15 08:10:07;;;;;;;1.13;1.05;;;22.30;99.90;;;;;;5074039;28;20028;-72
2023/08/15 08:12:33;;;;;;;0.00;0.00;;;22.40;99.90;;;;;;5066667;28;20028;-72
2023/08/15 08:14:59;;;;;;;2.78;0.77;;;22.60;99.90;;;;;;5069739;28;20024;-73
2023/08/15 08:17:26;;;;;;;1.73;1.00;;;22.50;99.90;;;;;;5073999;28;20032;-73
2023/08/15 08:19:52;;;;;;;5.80;1.13;;;22.60;99.90;;;;;;5045561;28;20381;-74
2023/08/15 08:22:18;;;;;;;5.18;0.98;;;22.60;99.90;;;;;;5072658;28;20028;-73
2023/08/15 08:24:44;;;;;;;2.58;0.98;;;22.60;99.90;;;;;;5073096;28;20038;-73
2023/08/15 08:27:10;;;;;;;2.45;0.95;;;22.70;99.90;;;;;;5073850;28;20119;-73
2023/08/15 08:29:36;;;;;;;1.30;0.65;;;22.60;99.90;;;;;;5068112;28;20484;-72
2023/08/15 08:32:02;;;;;;;3.97;1.08;;;22.70;99.90;;;;;;5083033;28;20020;-73
2023/08/15 08:34:28;;;;;;;0.68;0.28;;;22.90;99.90;;;;;;5084087;28;20397;-73
2023/08/15 08:36:54;;;;;;;1.60;1.15;;;23.10;99.90;;;;;;5094292;28;20117;-73
2023/08/15 08:39:19;;;;;;;2.40;0.52;;;23.20;99.90;;;;;;5085409;28;20025;-73
2023/08/15 08:41:45;;;;;;;3.42;0.90;;;23.30;99.90;;;;;;5090592;28;20047;-73
2023/08/15 08:44:13;;;;;;;1.77;0.82;;;23.10;99.90;;;;;;5074797;28;20045;-73
2023/08/15 08:46:39;;;;;;;1.02;0.68;;;23.10;99.90;;;;;;5073416;28;20047;-73
2023/08/15 08:49:08;;;;;;;0.60;0.60;;;23.20;99.90;;;;;;5073511;28;20023;-72
2023/08/15 08:51:34;;;;;;;2.05;0.63;;;23.30;99.90;;;;;;5073158;28;20025;-73
2023/08/15 08:54:00;;;;;;;0.55;0.55;;;23.10;99.90;;;;;;5072297;28;20100;-73
2023/08/15 08:56:28;;;;;;;13.95;1.70;;;23.10;99.90;;;;;;5071959;28;20107;-73
2023/08/15 08:59:00;;;;;;;0.15;0.15;;;23.30;99.90;;;;;;5073266;28;20124;-75
2023/08/15 09:01:29;;;;;;;4.68;0.65;;;23.80;99.90;;;;;;5073087;28;20024;-75
2023/08/15 09:03:55;;;;;;;6.72;2.10;;;23.70;99.90;;;;;;5072291;28;20120;-74
2023/08/15 09:06:22;;;;;;;0.57;0.38;;;24.10;99.90;;;;;;5072945;28;20029;-73
2023/08/15 09:08:48;;;;;;;1.45;0.95;;;24.20;99.90;;;;;;5067925;28;20028;-75
2023/08/15 09:11:14;;;;;;;0.10;0.10;;;24.30;99.90;;;;;;5072762;28;20523;-75
2023/08/15 09:14:06;;;;;;;1.38;0.43;;;23.70;99.90;;;;;;5072223;28;20078;-76
2023/08/15 09:16:33;;;;;;;12.55;1.33;;;23.90;99.90;;;;;;5073371;28;20613;-72
2023/08/15 09:19:02;;;;;;;0.00;0.00;;;23.70;99.90;;;;;;5072375;28;20028;-73
2023/08/15 09:21:29;;;;;;;2.40;0.40;;;23.80;99.90;;;;;;5071978;28;20036;-74
2023/08/15 09:23:59;;;;;;;2.17;0.47;;;23.90;99.90;;;;;;5070845;28;20069;-72
2023/08/15 09:26:25;;;;;;;6.28;0.90;;;24.00;99.90;;;;;;5064142;28;20028;-73
2023/08/15 09:28:52;;;;;;;0.93;0.30;;;23.70;99.90;;;;;;5060388;28;20024;-74
2023/08/15 09:31:19;;;;;;;3.20;0.57;;;23.60;99.90;;;;;;5071558;28;20156;-73
2023/08/15 09:33:45;;;;;;;0.22;0.22;;;23.40;99.90;;;;;;5077664;28;20047;-72
2023/08/15 09:36:10;;;;;;;0.00;0.00;;;23.30;99.90;;;;;;5072372;28;20464;-72
2023/08/15 09:38:37;;;;;;;0.00;0.00;;;22.90;99.90;;;;;;5079483;28;20109;-72
2023/08/15 09:41:03;;;;;;;0.57;0.57;;;23.00;99.90;;;;;;5073108;28;20029;-73
2023/08/15 09:43:30;;;;;;;4.30;0.55;;;23.10;99.90;;;;;;5072544;28;20040;-73
2023/08/15 09:45:59;;;;;;;0.00;0.00;;;23.40;99.90;;;;;;5073294;28;20214;-72
2023/08/15 09:48:29;;;;;;;0.00;0.00;;;23.30;99.90;;;;;;5072242;28;20028;-72
2023/08/15 09:50:56;;;;;;;0.50;0.50;;;23.70;99.90;;;;;;5074665;28;20052;-73
2023/08/15 09:53:25;;;;;;;3.63;1.30;;;23.60;99.90;;;;;;5072271;28;20542;-72
2023/08/15 09:55:51;;;;;;;0.40;0.38;;;23.10;99.90;;;;;;5071662;28;20099;-72
2023/08/15 09:58:19;;;;;;;0.10;0.10;;;23.30;99.90;;;;;;5070688;28;20515;-73
2023/08/15 10:00:51;;;;;;;1.35;1.08;;;23.70;99.90;;;;;;5069957;28;20029;-73
2023/08/15 10:03:28;;;;;;;0.88;0.20;;;24.20;99.90;;;;;;5071921;28;20109;-73
2023/08/15 10:05:57;;;;;;;1.98;0.40;;;24.70;99.90;;;;;;5090858;28;20321;-73
2023/08/15 10:08:24;;;;;;;1.88;1.25;;;24.90;99.90;;;;;;5091927;28;20028;-72
2023/08/15 10:10:51;;;;;;;0.82;0.82;;;25.20;99.90;;;;;;5092214;28;20036;-73
2023/08/15 10:13:20;;;;;;;0.47;0.47;;;25.00;99.90;;;;;;5092485;28;20107;-73
2023/08/15 10:15:47;;;;;;;0.35;0.35;;;24.80;99.90;;;;;;5091411;28;20116;-72
2023/08/15 10:18:13;;;;;;;0.65;0.65;;;24.80;99.90;;;;;;5092045;28;20066;-73
2023/08/15 10:20:39;;;;;;;0.00;0.00;;;24.90;99.90;;;;;;5092360;28;20024;-72
2023/08/15 10:23:10;;;;;;;1.38;1.25;;;24.90;99.90;;;;;;5090520;28;20020;-72
2023/08/15 10:25:39;;;;;;;0.98;0.77;;;25.20;99.90;;;;;;5091677;28;20028;-72
2023/08/15 10:28:09;;;;;;;1.92;0.85;;;25.20;99.90;;;;;;5092245;28;20016;-76
2023/08/15 10:30:41;;;;;;;2.80;0.93;;;24.80;99.90;;;;;;5092030;28;20190;-74
2023/08/15 10:33:13;;;;;;;0.20;0.20;;;25.10;99.90;;;;;;5110238;28;20451;-73
2023/08/15 10:35:50;;;;;;;0.00;0.00;;;25.60;99.90;;;;;;5112622;28;20044;-73
2023/08/15 10:38:27;;;;;;;0.57;0.55;;;26.00;99.90;;;;;;5111991;28;20035;-74
2023/08/15 10:41:04;;;;;;;0.10;0.10;;;26.00;99.90;;;;;;5112738;28;20040;-73
2023/08/15 10:43:35;;;;;;;0.28;0.28;;;25.50;99.90;;;;;;5112730;28;20501;-72
2023/08/15 10:46:04;;;;;;;0.20;0.20;;;25.40;99.90;;;;;;5112891;28;20039;-73
2023/08/15 10:48:50;;;;;;;0.73;0.50;;;25.40;99.90;;;;;;5112300;28;20028;-73
2023/08/15 10:51:27;;;;;;;0.00;0.00;;;25.30;99.90;;;;;;5112778;28;20123;-72
2023/08/15 10:54:00;;;;;;;0.77;0.32;;;25.10;99.90;;;;;;5077338;28;20023;-73
2023/08/15 10:56:28;;;;;;;18.33;0.45;;;25.20;99.90;;;;;;5106106;28;20092;-73
2023/08/15 10:58:55;;;;;;;0.03;0.03;;;24.90;99.90;;;;;;5110556;28;20026;-75
2023/08/15 11:01:23;;;;;;;3.83;0.90;;;25.20;99.90;;;;;;5110736;28;20058;-73
2023/08/15 11:03:51;;;;;;;0.17;0.17;;;24.70;99.90;;;;;;5111004;28;20382;-73
2023/08/15 11:06:17;;;;;;;2.25;0.65;;;24.40;99.90;;;;;;5112595;28;20480;-72
2023/08/15 11:08:47;;;;;;;0.35;0.25;;;24.40;99.90;;;;;;5113612;28;20055;-74
2023/08/15 11:11:14;;;;;;;0.38;0.38;;;24.40;99.90;;;;;;5116598;28;20046;-72
2023/08/15 11:13:42;;;;;;;0.00;0.00;;;24.90;99.90;;;;;;5114772;28;20359;-72
2023/08/15 11:16:08;;;;;;;2.65;1.13;;;25.10;99.90;;;;;;5104072;28;20019;-74
2023/08/15 11:18:35;;;;;;;5.15;0.52;;;25.10;99.90;;;;;;5115093;28;20114;-78
2023/08/15 11:21:02;;;;;;;0.30;0.15;;;25.40;99.90;;;;;;5116069;28;20038;-73
2023/08/15 11:23:29;;;;;;;0.10;0.10;;;25.70;99.90;;;;;;5115907;28;20032;-73
2023/08/15 11:26:02;;;;;;;0.57;0.32;;;25.40;99.90;;;;;;5116016;28;20040;-74
2023/08/15 11:28:29;;;;;;;0.65;0.52;;;25.50;99.90;;;;;;5115980;28;20039;-74
2023/08/15 11:30:55;;;;;;;0.20;0.20;;;25.80;99.90;;;;;;5095717;28;20031;-76
2023/08/15 11:33:23;;;;;;;1.85;0.65;;;25.70;99.90;;;;;;5095834;28;20031;-75
2023/08/15 11:35:49;;;;;;;0.10;0.10;;;25.00;99.90;;;;;;5094094;28;20129;-74
2023/08/15 11:38:19;;;;;;;0.30;0.25;;;25.40;99.90;;;;;;5105188;28;20039;-78
2023/08/15 11:40:45;;;;;;;0.00;0.00;;;25.40;99.90;;;;;;5106025;28;20110;-74
2023/08/15 11:43:11;;;;;;;0.00;0.00;;;25.60;99.90;;;;;;5100560;28;20031;-72
2023/08/15 11:45:39;;;;;;;0.00;0.00;;;25.60;99.90;;;;;;5094775;28;20032;-72
2023/08/15 11:48:06;;;;;;;1.25;0.65;;;25.60;99.90;;;;;;5093858;28;20020;-77
2023/08/15 11:50:34;;;;;;;5.32;0.52;;;26.00;99.90;;;;;;5108694;28;20043;-73
2023/08/15 11:53:06;;;;;;;0.00;0.00;;;25.90;99.90;;;;;;5106703;28;20479;-74
2023/08/15 11:55:35;;;;;;;0.43;0.43;;;25.70;99.90;;;;;;5089044;28;20035;-77
2023/08/15 11:58:02;;;;;;;0.10;0.10;;;25.50;99.90;;;;;;5093940;28;20024;-72
2023/08/15 12:00:28;;;;;;;0.10;0.10;;;25.40;99.90;;;;;;5099823;28;20048;-74
2023/08/15 12:02:55;;;;;;;3.90;0.30;;;25.50;99.90;;;;;;5106658;28;20141;-78
2023/08/15 12:05:21;;;;;;;4.43;0.95;;;25.00;99.90;;;;;;5107002;28;20044;-75
2023/08/15 12:07:48;;;;;;;0.25;0.25;;;25.10;99.90;;;;;;5112401;28;20055;-74
2023/08/15 12:10:15;;;;;;;0.77;0.77;;;25.30;99.90;;;;;;5111672;28;20024;-75
2023/08/15 12:12:46;;;;;;;0.13;0.13;;;25.30;99.90;;;;;;5108872;28;20019;-76
2023/08/15 12:15:14;;;;;;;0.43;0.30;;;25.80;99.90;;;;;;5109258;28;20476;-73
2023/08/15 12:17:40;;;;;;;0.00;0.00;;;26.30;99.90;;;;;;5109267;28;20020;-72
2023/08/15 12:20:09;;;;;;;0.40;0.40;;;26.20;99.90;;;;;;5109038;28;20032;-76
2023/08/15 12:22:36;;;;;;;1.55;0.30;;;27.00;99.90;;;;;;5096739;28;20464;-77
2023/08/15 12:25:02;;;;;;;0.20;0.20;;;26.60;99.90;;;;;;5107635;28;20044;-75
2023/08/15 12:27:27;;;;;;;0.08;0.08;;;27.10;99.90;;;;;;5101749;28;20107;-73
2023/08/15 12:29:53;;;;;;;0.10;0.10;;;28.00;99.90;;;;;;5094613;28;20016;-76
2023/08/15 12:32:20;;;;;;;2.30;0.85;;;28.10;99.90;;;;;;5100028;28;20084;-73
2023/08/15 12:34:46;;;;;;;0.50;0.20;;;28.40;99.90;;;;;;5097364;28;20055;-73
2023/08/15 12:37:12;;;;;;;0.10;0.10;;;28.10;99.90;;;;;;5103062;28;20043;-75
2023/08/15 12:39:37;;;;;;;0.65;0.65;;;28.40;99.90;;;;;;5105181;28;20849;-75
2023/08/15 12:42:04;;;;;;;0.00;0.00;;;28.20;99.90;;;;;;5099566;28;20072;-74
2023/08/15 12:44:31;;;;;;;0.00;0.00;;;28.50;99.90;;;;;;5100859;28;20487;-81
2023/08/15 12:46:57;;;;;;;0.35;0.35;;;27.80;99.90;;;;;;5093034;28;20040;-75